Wolf Bayou, Arkansas
Current Conditions -  °F | °C
As of 11:15 PM on Friday 24 Oct 2014 (Local Time) from KBVX Reporting Station
Clear Clear  
Wind Chill: 64°   Ceiling: Unl
Heat Index: 64°   Visibility: 10mi
Dew Point: 55°   Wind: 8mph
Humidity: 73%   Direction: 210°SSW
Pressure: 30.08"   Gusts: NA
Location:  35.6661°N, 91.94°W
Report Text: KBVX 250415Z AUTO 21007KT 10SM CLR 18/13 A3008 RMK AO1
Loading
Personal Weather Stations






























Interactive Weather Map
Tropical Storm Tracking
New forecast layout! Learn more

10-Day Weather Forecast

Advertisements
Track Severe Weather on mobile